UUWW/VKO METAR and TAF weather

Enter ICAO airport designator
Station Type Date Time Source
UUWW METAR 2019/10/15 18:30 UTC NOAA

UUWW 151830Z 01004MPS 9999 BKN020 04/M01 Q1025 R06/000070 NOSIG


Station Type Date Time Source
UUWW Decoded METAR 2019/10/15 18:30 UTC NOAA

Moscow / Vnukovo , Russia (UUWW) 55-39N 037-16E
Oct 15, 2019 - 02:30 PM EDT / 2019.10.15 1830 UTC
Wind: from the N (010 degrees) at 9 MPH (8 KT):0
Visibility: greater than 7 mile(s):0
Sky conditions: mostly cloudy
Temperature: 39 F (4 C)
Dew Point: 30 F (-1 C)
Relative Humidity: 69%
Pressure (altimeter): 30.27 in. Hg (1025 hPa)
ob: UUWW 151830Z 01004MPS 9999 BKN020 04/M01 Q1025 R06/000070 NOSIG
cycle: 18

Station Type Date Time Source
UUWW TAF 2019/10/15 18:21 UTC NOAA

TAF UUWW 151647Z 1518/1618 36005MPS 9999 BKN015 TX07/1612Z TN01/1602Z
BECMG 1518/1520 06003MPS PROB40
TEMPO 1523/1605 0300 FG SCT004
BECMG 1606/1608 15006G13MPS

Example: see airport list